createdAt,value
2023-04-02T00:00:58.973Z,0.40
2023-04-02T00:03:26.201Z,0.50
2023-04-02T00:05:55.806Z,0.50
2023-04-02T00:08:27.701Z,0.40
2023-04-02T00:10:54.854Z,0.70
2023-04-02T00:13:24.810Z,0.40
2023-04-02T00:15:56.964Z,0.30
2023-04-02T00:18:24.872Z,0.50
2023-04-02T00:21:09.715Z,0.68
2023-04-02T00:23:38.800Z,0.60
2023-04-02T00:26:35.568Z,0.40
2023-04-02T00:29:04.394Z,0.45
2023-04-02T00:31:32.081Z,0.40
2023-04-02T00:34:00.705Z,0.40
2023-04-02T00:36:30.236Z,0.30
2023-04-02T00:38:58.866Z,0.30
2023-04-02T00:41:29.732Z,0.38
2023-04-02T00:43:58.862Z,0.40
2023-04-02T00:46:34.700Z,0.60
2023-04-02T00:49:13.414Z,0.60
2023-04-02T00:51:47.237Z,0.45
2023-04-02T00:54:17.777Z,0.85
2023-04-02T00:56:46.492Z,0.30
2023-04-02T00:59:28.202Z,0.40
2023-04-02T01:02:01.591Z,0.55
2023-04-02T01:04:32.548Z,0.30
2023-04-02T01:07:00.032Z,0.47
2023-04-02T01:09:30.133Z,0.50
2023-04-02T01:12:00.006Z,0.50
2023-04-02T01:14:36.674Z,0.40
2023-04-02T01:17:22.476Z,0.50
2023-04-02T01:19:58.420Z,0.52
2023-04-02T01:22:35.257Z,0.50
2023-04-02T01:25:04.512Z,0.40
2023-04-02T01:27:44.129Z,0.50
2023-04-02T01:30:12.630Z,0.40
2023-04-02T01:32:41.071Z,0.50
2023-04-02T01:35:08.795Z,0.60
2023-04-02T01:37:46.698Z,0.30
2023-04-02T01:40:26.086Z,0.40
2023-04-02T01:42:55.937Z,0.40
2023-04-02T01:45:23.876Z,0.43
2023-04-02T01:47:51.394Z,0.55
2023-04-02T01:50:32.274Z,0.60
2023-04-02T01:53:01.459Z,0.30
2023-04-02T01:55:34.954Z,0.45
2023-04-02T01:58:03.890Z,0.47
2023-04-02T02:00:32.417Z,0.40
2023-04-02T02:03:00.720Z,0.57
2023-04-02T02:05:28.063Z,0.52
2023-04-02T02:07:56.545Z,0.40
2023-04-02T02:10:28.100Z,0.47
2023-04-02T02:12:56.362Z,0.50
2023-04-02T02:15:24.614Z,0.45
2023-04-02T02:17:54.891Z,0.40
2023-04-02T02:20:22.936Z,0.30
2023-04-02T02:22:51.066Z,0.38
2023-04-02T02:25:20.853Z,0.60
2023-04-02T02:27:48.069Z,0.50
2023-04-02T02:30:17.516Z,0.50
2023-04-02T02:32:51.178Z,0.70
2023-04-02T02:35:34.871Z,0.60
2023-04-02T02:38:07.672Z,0.30
2023-04-02T02:40:41.368Z,0.40
2023-04-02T02:43:11.077Z,0.40
2023-04-02T02:45:39.150Z,0.60
2023-04-02T02:48:09.353Z,0.52
2023-04-02T02:50:36.965Z,0.40
2023-04-02T02:53:06.296Z,0.85
2023-04-02T02:55:38.148Z,0.40
2023-04-02T02:58:08.865Z,0.68
2023-04-02T03:00:36.620Z,0.60
2023-04-02T03:03:08.033Z,0.50
2023-04-02T03:05:36.431Z,0.40
2023-04-02T03:08:05.755Z,0.75
2023-04-02T03:10:43.389Z,0.95
2023-04-02T03:13:32.822Z,0.30
2023-04-02T03:16:18.664Z,0.50
2023-04-02T03:18:51.786Z,0.50
2023-04-02T03:21:21.940Z,0.40
2023-04-02T03:23:54.082Z,0.50
2023-04-02T03:26:28.026Z,0.30
2023-04-02T03:29:01.787Z,0.38
2023-04-02T03:31:40.561Z,0.50
2023-04-02T03:34:26.713Z,0.30
2023-04-02T03:36:57.900Z,0.47
2023-04-02T03:39:36.498Z,0.70
2023-04-02T03:42:06.651Z,0.50
2023-04-02T03:44:52.109Z,0.60
2023-04-02T03:47:19.233Z,0.40
2023-04-02T03:50:18.889Z,0.95
2023-04-02T03:52:46.555Z,0.30
2023-04-02T03:55:15.956Z,0.38
2023-04-02T03:57:48.274Z,0.50
2023-04-02T04:00:17.790Z,0.30
2023-04-02T04:02:47.140Z,0.40
2023-04-02T04:05:23.122Z,1.13
2023-04-02T04:07:52.573Z,0.30
2023-04-02T04:10:21.909Z,0.50
2023-04-02T04:12:49.845Z,0.40
2023-04-02T04:15:29.758Z,0.35
2023-04-02T04:17:56.972Z,0.57
2023-04-02T04:20:24.373Z,0.50
2023-04-02T04:22:56.003Z,0.50
2023-04-02T04:25:29.483Z,0.40
2023-04-02T04:28:05.673Z,0.40
2023-04-02T04:30:42.101Z,0.47
2023-04-02T04:33:39.877Z,0.38
2023-04-02T04:36:19.265Z,0.50
2023-04-02T04:38:49.240Z,0.47
2023-04-02T04:41:24.846Z,0.38
2023-04-02T04:43:52.027Z,0.50
2023-04-02T04:46:22.151Z,0.47
2023-04-02T04:48:55.263Z,0.40
2023-04-02T04:51:25.589Z,0.40
2023-04-02T04:53:55.118Z,0.40
2023-04-02T04:56:24.932Z,0.55
2023-04-02T04:59:01.037Z,0.50
2023-04-02T05:01:32.447Z,0.40
2023-04-02T05:04:26.129Z,0.70
2023-04-02T05:07:01.500Z,1.50
2023-04-02T05:09:34.863Z,0.35
2023-04-02T05:12:18.176Z,0.60
2023-04-02T05:14:58.888Z,0.82
2023-04-02T05:17:31.847Z,0.55
2023-04-02T05:20:09.758Z,0.60
2023-04-02T05:22:41.442Z,0.40
2023-04-02T05:25:17.844Z,0.40
2023-04-02T05:27:48.278Z,0.82
2023-04-02T05:30:31.007Z,0.40
2023-04-02T05:33:07.950Z,0.50
2023-04-02T05:35:37.159Z,0.63
2023-04-02T05:38:06.595Z,0.45
2023-04-02T05:40:36.737Z,0.57
2023-04-02T05:43:08.149Z,0.45
2023-04-02T05:45:37.619Z,0.35
2023-04-02T05:48:10.884Z,1.13
2023-04-02T05:50:41.028Z,0.40
2023-04-02T05:53:14.879Z,0.43
2023-04-02T05:55:57.847Z,0.52
2023-04-02T05:58:47.126Z,0.52
2023-04-02T06:01:18.585Z,0.40
2023-04-02T06:03:48.915Z,0.32
2023-04-02T06:06:26.469Z,0.50
2023-04-02T06:09:02.239Z,0.73
2023-04-02T06:11:31.916Z,0.40
2023-04-02T06:13:59.240Z,0.70
2023-04-02T06:16:28.059Z,0.30
2023-04-02T06:18:55.796Z,0.50
2023-04-02T06:21:22.992Z,0.47
2023-04-02T06:23:56.940Z,0.45
2023-04-02T06:26:24.185Z,0.82
2023-04-02T06:28:52.783Z,0.38
2023-04-02T06:31:28.934Z,0.50
2023-04-02T06:33:56.506Z,0.70
2023-04-02T06:36:24.559Z,0.63
2023-04-02T06:38:52.808Z,0.60
2023-04-02T06:41:24.276Z,0.40
2023-04-02T06:43:54.468Z,0.65
2023-04-02T06:46:26.170Z,0.60
2023-04-02T06:48:57.384Z,0.40
2023-04-02T06:51:25.128Z,0.70
2023-04-02T06:53:53.289Z,0.50
2023-04-02T06:56:23.309Z,0.65
2023-04-02T06:58:50.612Z,0.82
2023-04-02T07:01:20.641Z,0.40
2023-04-02T07:03:47.940Z,0.90
2023-04-02T07:06:19.676Z,0.45
2023-04-02T07:08:46.903Z,0.60
2023-04-02T07:11:19.471Z,0.55
2023-04-02T07:13:48.774Z,0.65
2023-04-02T07:16:17.274Z,0.70
2023-04-02T07:18:44.730Z,0.70
2023-04-02T07:21:11.899Z,0.80
2023-04-02T07:23:39.292Z,0.70
2023-04-02T07:26:07.420Z,0.70
2023-04-02T07:28:35.208Z,0.77
2023-04-02T07:31:02.487Z,0.65
2023-04-02T07:33:30.627Z,0.82
2023-04-02T07:35:58.847Z,0.60
2023-04-02T07:38:26.312Z,0.70
2023-04-02T07:40:53.587Z,0.55
2023-04-02T07:43:21.872Z,0.70
2023-04-02T07:45:50.338Z,0.70
2023-04-02T07:48:17.496Z,0.70
2023-04-02T07:50:44.620Z,0.57
2023-04-02T07:53:30.154Z,0.85
2023-04-02T07:55:58.282Z,0.75
2023-04-02T07:58:25.894Z,0.82
2023-04-02T08:00:53.033Z,0.70
2023-04-02T08:03:20.396Z,0.57
2023-04-02T08:05:53.615Z,0.70
2023-04-02T08:08:21.713Z,0.80
2023-04-02T08:10:49.253Z,0.75
2023-04-02T08:13:18.097Z,0.77
2023-04-02T08:15:45.723Z,0.90
2023-04-02T08:18:12.984Z,0.70
2023-04-02T08:20:40.096Z,0.70
2023-04-02T08:23:13.607Z,0.85
2023-04-02T08:25:41.143Z,0.70
2023-04-02T08:28:08.286Z,0.90
2023-04-02T08:30:35.649Z,0.80
2023-04-02T08:33:03.574Z,0.65
2023-04-02T08:35:31.303Z,0.90
2023-04-02T08:37:58.502Z,0.70
2023-04-02T08:40:34.876Z,0.80
2023-04-02T08:43:22.379Z,0.90
2023-04-02T08:45:50.693Z,0.88
2023-04-02T08:48:18.194Z,0.77
2023-04-02T08:50:47.247Z,0.90
2023-04-02T08:53:17.219Z,0.77
2023-04-02T08:55:44.408Z,0.80
2023-04-02T08:58:23.853Z,0.70
2023-04-02T09:00:54.362Z,0.80
2023-04-02T09:03:40.879Z,0.90
2023-04-02T09:06:10.133Z,0.95
2023-04-02T09:08:37.647Z,0.60
2023-04-02T09:11:09.627Z,1.10
2023-04-02T09:13:39.820Z,0.73
2023-04-02T09:16:33.259Z,0.60
2023-04-02T09:19:01.770Z,0.63
2023-04-02T09:21:37.928Z,0.60
2023-04-02T09:24:05.754Z,1.00
2023-04-02T09:26:34.583Z,0.90
2023-04-02T09:29:14.094Z,0.57
2023-04-02T09:31:45.357Z,0.60
2023-04-02T09:34:29.714Z,0.60
2023-04-02T09:36:57.042Z,0.60
2023-04-02T09:39:28.507Z,0.60
2023-04-02T09:42:05.160Z,0.60
2023-04-02T09:44:33.147Z,0.50
2023-04-02T09:47:04.836Z,0.77
2023-04-02T09:49:33.842Z,0.80
2023-04-02T09:52:10.081Z,0.70
2023-04-02T09:54:43.803Z,0.52
2023-04-02T09:57:21.266Z,0.70
2023-04-02T09:59:48.445Z,0.60
2023-04-02T10:02:29.412Z,0.55
2023-04-02T10:04:57.043Z,0.95
2023-04-02T10:07:30.642Z,0.70
2023-04-02T10:09:58.730Z,0.65
2023-04-02T10:12:26.554Z,0.55
2023-04-02T10:14:53.798Z,0.60
2023-04-02T10:17:22.802Z,0.80
2023-04-02T10:19:52.947Z,0.70
2023-04-02T10:22:21.613Z,0.90
2023-04-02T10:24:49.245Z,0.70
2023-04-02T10:27:25.734Z,0.60
2023-04-02T10:30:11.907Z,0.77
2023-04-02T10:32:49.397Z,0.45
2023-04-02T10:35:36.168Z,0.77
2023-04-02T10:38:08.421Z,0.45
2023-04-02T10:40:37.352Z,0.80
2023-04-02T10:43:23.173Z,0.75
2023-04-02T10:46:09.359Z,0.80
2023-04-02T10:49:09.088Z,1.23
2023-04-02T10:51:40.200Z,0.60
2023-04-02T10:54:33.821Z,0.70
2023-04-02T10:57:24.301Z,0.50
2023-04-02T11:00:08.160Z,0.50
2023-04-02T11:02:39.485Z,0.47
2023-04-02T11:05:11.774Z,0.32
2023-04-02T11:07:45.695Z,0.50
2023-04-02T11:10:15.900Z,0.40
2023-04-02T11:12:46.708Z,0.40
2023-04-02T11:15:16.881Z,0.40
2023-04-02T11:17:45.242Z,0.40
2023-04-02T11:20:31.235Z,0.50
2023-04-02T11:23:05.947Z,0.60
2023-04-02T11:25:33.381Z,0.50
2023-04-02T11:28:13.879Z,0.30
2023-04-02T11:30:41.178Z,0.70
2023-04-02T11:33:42.098Z,0.70
2023-04-02T11:36:30.327Z,0.80
2023-04-02T11:39:04.448Z,0.60
2023-04-02T11:41:53.273Z,0.77
2023-04-02T11:44:24.564Z,0.60
2023-04-02T11:46:51.859Z,0.90
2023-04-02T11:49:36.252Z,0.50
2023-04-02T11:52:11.830Z,0.80
2023-04-02T11:54:40.532Z,0.80
2023-04-02T11:57:18.456Z,0.80
2023-04-02T11:59:59.649Z,0.90
2023-04-02T12:02:31.416Z,0.55
2023-04-02T12:05:04.455Z,0.70
2023-04-02T12:07:37.606Z,0.98
2023-04-02T12:10:17.068Z,0.60
2023-04-02T12:12:44.462Z,0.52
2023-04-02T12:15:30.273Z,0.70
2023-04-02T12:18:12.128Z,0.63
2023-04-02T12:20:39.689Z,0.47
2023-04-02T12:23:06.966Z,0.70
2023-04-02T12:25:40.020Z,0.60
2023-04-02T12:28:10.017Z,0.70
2023-04-02T12:30:38.021Z,0.88
2023-04-02T12:33:25.553Z,0.40
2023-04-02T12:35:57.633Z,0.45
2023-04-02T12:38:29.277Z,0.57
2023-04-02T12:41:01.454Z,0.50
2023-04-02T12:43:29.542Z,0.50
2023-04-02T12:45:58.601Z,0.73
2023-04-02T12:48:27.034Z,0.75
2023-04-02T12:50:54.774Z,0.60
2023-04-02T12:53:23.318Z,0.73
2023-04-02T12:55:51.676Z,0.60
2023-04-02T12:58:39.133Z,0.82
2023-04-02T13:01:11.083Z,0.50
2023-04-02T13:03:38.379Z,0.70
2023-04-02T13:06:17.235Z,0.80
2023-04-02T13:08:44.623Z,0.60
2023-04-02T13:11:11.762Z,1.10
2023-04-02T13:13:43.842Z,1.02
2023-04-02T13:16:11.127Z,0.80
2023-04-02T13:18:39.184Z,0.90
2023-04-02T13:21:07.526Z,1.10
2023-04-02T13:23:36.704Z,1.00
2023-04-02T13:26:11.914Z,0.90
2023-04-02T13:28:39.161Z,0.70
2023-04-02T13:31:06.411Z,0.85
2023-04-02T13:33:33.566Z,0.73
2023-04-02T13:36:00.788Z,1.02
2023-04-02T13:38:27.966Z,1.20
2023-04-02T13:40:55.117Z,1.00
2023-04-02T13:43:22.318Z,0.85
2023-04-02T13:45:53.832Z,0.82
2023-04-02T13:48:24.567Z,0.90
2023-04-02T13:50:52.679Z,1.00
2023-04-02T13:53:24.485Z,0.90
2023-04-02T13:55:52.645Z,0.80
2023-04-02T13:58:19.938Z,0.90
2023-04-02T14:00:47.661Z,0.80
2023-04-02T14:03:16.855Z,0.80
2023-04-02T14:05:47.901Z,0.70
2023-04-02T14:08:18.196Z,1.00
2023-04-02T14:10:48.321Z,1.00
2023-04-02T14:13:18.255Z,1.35
2023-04-02T14:15:52.490Z,1.17
2023-04-02T14:18:32.026Z,1.10
2023-04-02T14:20:59.131Z,1.08
2023-04-02T14:23:31.821Z,1.10
2023-04-02T14:26:10.523Z,0.88
2023-04-02T14:29:01.516Z,0.90
2023-04-02T14:31:55.077Z,0.90
2023-04-02T14:34:32.893Z,0.80
2023-04-02T14:37:03.137Z,0.80
2023-04-02T14:39:33.107Z,0.30
2023-04-02T14:42:07.153Z,0.40
2023-04-02T14:44:37.783Z,0.50
2023-04-02T14:47:31.465Z,0.40
2023-04-02T14:50:04.026Z,0.40
2023-04-02T14:52:33.820Z,0.60
2023-04-02T14:55:05.305Z,0.60
2023-04-02T14:57:36.018Z,0.90
2023-04-02T15:00:05.968Z,1.10
2023-04-02T15:02:44.981Z,1.15
2023-04-02T15:05:18.385Z,1.77
2023-04-02T15:07:55.734Z,1.00
2023-04-02T15:10:26.558Z,1.48
2023-04-02T15:12:56.229Z,1.20
2023-04-02T15:15:33.162Z,1.05
2023-04-02T15:18:10.002Z,1.00
2023-04-02T15:20:56.209Z,0.70
2023-04-02T15:23:29.141Z,0.40
2023-04-02T15:26:03.265Z,0.52
2023-04-02T15:28:33.436Z,0.50
2023-04-02T15:31:04.674Z,0.65
2023-04-02T15:33:35.387Z,0.60
2023-04-02T15:36:02.978Z,0.60
2023-04-02T15:38:37.997Z,0.60
2023-04-02T15:43:35.942Z,0.93
2023-04-02T15:46:08.953Z,0.68
2023-04-02T15:48:48.398Z,0.80
2023-04-02T15:51:30.911Z,0.73
2023-04-02T15:53:58.045Z,0.70
2023-04-02T15:56:44.120Z,1.08
2023-04-02T15:59:20.630Z,1.10
2023-04-02T16:01:54.990Z,1.30
2023-04-02T16:04:34.920Z,1.20
2023-04-02T16:07:14.430Z,1.40
2023-04-02T16:09:47.494Z,1.40
2023-04-02T16:12:15.926Z,1.55
2023-04-02T16:14:44.226Z,1.80
2023-04-02T16:17:25.049Z,2.35
2023-04-02T16:19:56.175Z,2.30
2023-04-02T16:22:25.418Z,1.92
2023-04-02T16:25:01.587Z,2.50
2023-04-02T16:27:43.196Z,2.60
2023-04-02T16:30:29.985Z,2.78
2023-04-02T16:33:21.259Z,3.00
2023-04-02T16:35:57.532Z,3.05
2023-04-02T16:38:36.857Z,2.70
2023-04-02T16:41:19.215Z,2.42
2023-04-02T16:43:46.349Z,2.53
2023-04-02T16:46:20.337Z,2.85
2023-04-02T16:48:55.257Z,2.65
2023-04-02T16:51:32.693Z,2.55
2023-04-02T16:54:14.234Z,3.10
2023-04-02T16:56:48.706Z,3.00
2023-04-02T16:59:24.730Z,2.70
2023-04-02T17:02:11.086Z,2.70
2023-04-02T17:04:50.468Z,2.33
2023-04-02T17:07:23.415Z,2.92
2023-04-02T17:09:52.093Z,3.20
2023-04-02T17:12:23.734Z,3.20
2023-04-02T17:14:53.106Z,2.83
2023-04-02T17:17:21.349Z,3.50
2023-04-02T17:19:51.017Z,3.17
2023-04-02T17:22:19.646Z,3.50
2023-04-02T17:24:49.773Z,3.55
2023-04-02T17:27:16.889Z,3.30
2023-04-02T17:29:45.812Z,3.38
2023-04-02T17:32:17.773Z,3.60
2023-04-02T17:34:44.904Z,3.70
2023-04-02T17:37:27.616Z,3.25
2023-04-02T17:40:00.862Z,3.20
2023-04-02T17:42:46.605Z,3.22
2023-04-02T17:45:29.295Z,3.22
2023-04-02T17:48:10.296Z,3.05
2023-04-02T17:50:49.593Z,3.20
2023-04-02T17:53:42.929Z,3.17
2023-04-02T17:56:33.420Z,3.20
2023-04-02T17:59:00.685Z,3.60
2023-04-02T18:01:49.536Z,3.60
2023-04-02T18:04:34.222Z,3.97
2023-04-02T18:07:01.364Z,3.70
2023-04-02T18:09:29.083Z,4.38
2023-04-02T18:12:03.945Z,4.93
2023-04-02T18:17:07.239Z,4.93
2023-04-02T18:19:47.010Z,5.22
2023-04-02T18:22:18.884Z,5.30
2023-04-02T18:24:52.268Z,4.90
2023-04-02T18:27:28.131Z,5.60
2023-04-02T18:29:58.272Z,4.80
2023-04-02T18:32:45.715Z,4.95
2023-04-02T18:35:16.301Z,5.05
2023-04-02T18:37:46.452Z,5.00
2023-04-02T18:40:32.260Z,5.22
2023-04-02T18:43:26.222Z,4.57
2023-04-02T18:45:56.514Z,5.80
2023-04-02T18:48:35.022Z,5.13
2023-04-02T18:51:05.877Z,5.28
2023-04-02T18:53:34.203Z,4.53
2023-04-02T18:56:11.971Z,5.32
2023-04-02T18:58:42.984Z,4.78
2023-04-02T19:01:12.405Z,4.82
2023-04-02T19:03:47.153Z,5.30
2023-04-02T19:06:19.261Z,5.35
2023-04-02T19:08:48.630Z,6.05
2023-04-02T19:11:20.485Z,5.82
2023-04-02T19:13:49.039Z,5.38
2023-04-02T19:16:31.599Z,5.15
2023-04-02T19:18:58.770Z,5.25
2023-04-02T19:21:33.052Z,5.90
2023-04-02T19:24:00.214Z,5.60
2023-04-02T19:26:31.251Z,6.10
2023-04-02T19:29:18.682Z,5.35
2023-04-02T19:32:12.005Z,6.00
2023-04-02T19:34:41.567Z,5.25
2023-04-02T19:37:16.808Z,5.43
2023-04-02T19:39:57.470Z,5.55
2023-04-02T19:42:36.325Z,4.82
2023-04-02T19:45:03.600Z,5.28
2023-04-02T19:47:30.838Z,5.57
2023-04-02T19:49:58.039Z,5.45
2023-04-02T19:52:25.220Z,5.60
2023-04-02T19:54:52.444Z,5.32
2023-04-02T19:57:19.663Z,5.55
2023-04-02T19:59:46.843Z,5.20
2023-04-02T20:02:14.046Z,5.10
2023-04-02T20:04:42.498Z,4.90
2023-04-02T20:07:09.664Z,5.22
2023-04-02T20:09:36.871Z,4.65
2023-04-02T20:12:04.121Z,4.95
2023-04-02T20:14:31.299Z,5.13
2023-04-02T20:16:58.550Z,5.18
2023-04-02T20:19:26.018Z,4.97
2023-04-02T20:21:53.162Z,4.65
2023-04-02T20:24:20.345Z,4.25
2023-04-02T20:26:47.501Z,4.60
2023-04-02T20:29:14.672Z,4.75
2023-04-02T20:31:41.853Z,4.47
2023-04-02T20:34:10.111Z,4.82
2023-04-02T20:36:37.334Z,4.97
2023-04-02T20:39:07.888Z,5.05
2023-04-02T20:41:35.051Z,4.93
2023-04-02T20:44:02.216Z,4.50
2023-04-02T20:46:29.463Z,4.57
2023-04-02T20:48:57.144Z,4.90
2023-04-02T20:51:24.249Z,4.43
2023-04-02T20:53:51.423Z,5.07
2023-04-02T20:56:19.554Z,4.80
2023-04-02T20:58:46.771Z,4.80
2023-04-02T21:01:17.608Z,5.03
2023-04-02T21:03:45.077Z,5.13
2023-04-02T21:06:16.401Z,5.00
2023-04-02T21:08:43.819Z,5.47
2023-04-02T21:11:11.975Z,5.15
2023-04-02T21:13:40.678Z,5.30
2023-04-02T21:16:13.979Z,5.95
2023-04-02T21:18:41.200Z,5.80
2023-04-02T21:21:09.055Z,6.03
2023-04-02T21:23:36.186Z,6.00
2023-04-02T21:26:06.126Z,6.15
2023-04-02T21:28:36.409Z,6.85
2023-04-02T21:31:22.956Z,6.72
2023-04-02T21:33:51.720Z,6.43
2023-04-02T21:36:23.858Z,6.90
2023-04-02T21:39:11.476Z,7.15
2023-04-02T21:41:40.013Z,7.20
2023-04-02T21:44:08.323Z,7.75
2023-04-02T21:46:37.006Z,7.20
2023-04-02T21:49:04.224Z,7.95
2023-04-02T21:51:32.670Z,7.25
2023-04-02T21:54:00.280Z,8.10
2023-04-02T21:56:28.726Z,7.75
2023-04-02T21:58:57.046Z,7.88
2023-04-02T22:01:27.846Z,8.30
2023-04-02T22:03:56.195Z,8.38
2023-04-02T22:06:25.033Z,7.80
2023-04-02T22:08:54.149Z,7.80
2023-04-02T22:11:23.656Z,8.23
2023-04-02T22:13:51.175Z,7.03
2023-04-02T22:16:19.413Z,7.53
2023-04-02T22:18:46.684Z,8.30
2023-04-02T22:21:14.271Z,8.13
2023-04-02T22:23:41.858Z,8.77
2023-04-02T22:26:09.915Z,8.57
2023-04-02T22:28:37.583Z,8.18
2023-04-02T22:31:06.561Z,8.02
2023-04-02T22:33:34.015Z,7.22
2023-04-02T22:36:01.308Z,7.90
2023-04-02T22:38:28.598Z,7.63
2023-04-02T22:41:04.666Z,7.57
2023-04-02T22:43:31.881Z,8.02
2023-04-02T22:45:59.077Z,7.70
2023-04-02T22:48:26.261Z,7.80
2023-04-02T22:50:53.412Z,7.05
2023-04-02T22:53:20.795Z,8.10
2023-04-02T22:55:47.998Z,8.82
2023-04-02T22:58:15.341Z,7.38
2023-04-02T23:00:43.005Z,7.70
2023-04-02T23:03:10.303Z,8.02
2023-04-02T23:05:37.438Z,8.10
2023-04-02T23:08:05.536Z,7.88
2023-04-02T23:10:32.693Z,7.30
2023-04-02T23:12:59.840Z,8.02
2023-04-02T23:15:26.990Z,8.30
2023-04-02T23:17:54.159Z,8.15
2023-04-02T23:20:21.355Z,7.90
2023-04-02T23:22:48.568Z,7.80
2023-04-02T23:25:15.773Z,8.05
2023-04-02T23:27:42.951Z,7.38
2023-04-02T23:30:10.167Z,7.82
2023-04-02T23:32:37.419Z,7.25
2023-04-02T23:35:06.452Z,7.55
2023-04-02T23:37:33.581Z,7.57
2023-04-02T23:40:00.747Z,7.15
2023-04-02T23:42:28.432Z,7.07
2023-04-02T23:44:55.881Z,7.43
2023-04-02T23:47:23.030Z,7.43
2023-04-02T23:49:50.159Z,7.07
2023-04-02T23:52:17.319Z,7.25
2023-04-02T23:54:44.535Z,6.60
2023-04-02T23:57:11.929Z,6.75
2023-04-02T23:59:40.278Z,6.53
